sensor_id;sensor_type;location;lat;lon;timestamp;pressure;altitude;pressure_sealevel;temperature;humidity
929;BME280;451;47.988;7.842;2022-12-29T00:00:48;98150.22;;;14.28;56.74
929;BME280;451;47.988;7.842;2022-12-29T00:09:50;97868.63;;;12.46;55.81
929;BME280;451;47.988;7.842;2022-12-29T00:18:51;98007.50;;;13.14;56.31
929;BME280;451;47.988;7.842;2022-12-29T00:27:53;98120.53;;;14.32;55.57
929;BME280;451;47.988;7.842;2022-12-29T00:37:14;98143.34;;;14.40;54.76
929;BME280;451;47.988;7.842;2022-12-29T00:46:17;98028.56;;;13.75;53.99
929;BME280;451;47.988;7.842;2022-12-29T00:55:18;98133.41;;;14.42;53.65
929;BME280;451;47.988;7.842;2022-12-29T01:04:21;98143.72;;;14.37;54.25
929;BME280;451;47.988;7.842;2022-12-29T01:13:23;97988.22;;;13.20;54.05
929;BME280;451;47.988;7.842;2022-12-29T01:22:25;98131.63;;;13.88;55.39
929;BME280;451;47.988;7.842;2022-12-29T01:31:27;98155.38;;;13.75;56.61
929;BME280;451;47.988;7.842;2022-12-29T01:40:29;97972.19;;;12.40;56.12
929;BME280;451;47.988;7.842;2022-12-29T01:49:31;98171.41;;;13.67;57.03
929;BME280;451;47.988;7.842;2022-12-29T01:58:37;98192.72;;;13.59;57.55
929;BME280;451;47.988;7.842;2022-12-29T02:07:41;98114.44;;;13.10;57.91
929;BME280;451;47.988;7.842;2022-12-29T02:35:44;98003.06;;;12.18;59.88
929;BME280;451;47.988;7.842;2022-12-29T02:45:07;98192.56;;;13.32;61.51
929;BME280;451;47.988;7.842;2022-12-29T02:54:12;98035.25;;;12.35;62.18
929;BME280;451;47.988;7.842;2022-12-29T03:03:51;98175.53;;;13.35;62.61
929;BME280;451;47.988;7.842;2022-12-29T03:13:06;98171.84;;;13.29;62.96
929;BME280;451;47.988;7.842;2022-12-29T03:22:31;98087.56;;;12.66;62.85
929;BME280;451;47.988;7.842;2022-12-29T03:31:42;97940.78;;;11.83;64.76
929;BME280;451;47.988;7.842;2022-12-29T03:40:48;98091.44;;;12.70;65.32
929;BME280;451;47.988;7.842;2022-12-29T03:49:52;98076.03;;;12.67;66.02
929;BME280;451;47.988;7.842;2022-12-29T03:58:53;98073.63;;;12.72;65.87
929;BME280;451;47.988;7.842;2022-12-29T04:08:03;98193.25;;;13.13;64.92
929;BME280;451;47.988;7.842;2022-12-29T04:17:05;98034.19;;;12.64;64.92
929;BME280;451;47.988;7.842;2022-12-29T04:26:11;98095.41;;;12.80;65.44
929;BME280;451;47.988;7.842;2022-12-29T04:35:33;98134.59;;;12.90;66.42
929;BME280;451;47.988;7.842;2022-12-29T04:44:35;98117.72;;;12.84;66.17
929;BME280;451;47.988;7.842;2022-12-29T04:53:45;97738.16;;;10.63;66.13
929;BME280;451;47.988;7.842;2022-12-29T05:02:47;98093.34;;;13.10;65.44
929;BME280;451;47.988;7.842;2022-12-29T05:11:50;98106.06;;;13.35;64.40
929;BME280;451;47.988;7.842;2022-12-29T05:20:51;98040.28;;;13.46;62.38
929;BME280;451;47.988;7.842;2022-12-29T05:29:55;97942.69;;;13.12;61.16
929;BME280;451;47.988;7.842;2022-12-29T05:38:57;97908.38;;;13.05;60.43
929;BME280;451;47.988;7.842;2022-12-29T05:47:59;98042.44;;;14.23;59.42
929;BME280;451;47.988;7.842;2022-12-29T05:57:10;98065.19;;;14.31;59.24
929;BME280;451;47.988;7.842;2022-12-29T06:06:14;98069.69;;;14.30;58.50
929;BME280;451;47.988;7.842;2022-12-29T06:15:16;97938.13;;;13.53;58.56
929;BME280;451;47.988;7.842;2022-12-29T06:24:19;98047.28;;;13.93;59.15
929;BME280;451;47.988;7.842;2022-12-29T06:33:22;97905.19;;;13.16;58.49
929;BME280;451;47.988;7.842;2022-12-29T06:42:24;98032.88;;;14.16;57.65
929;BME280;451;47.988;7.842;2022-12-29T06:51:52;97978.97;;;13.64;58.13
929;BME280;451;47.988;7.842;2022-12-29T07:00:53;98011.91;;;14.01;57.84
929;BME280;451;47.988;7.842;2022-12-29T07:09:55;98002.59;;;14.05;57.47
929;BME280;451;47.988;7.842;2022-12-29T07:18:57;97889.97;;;13.58;56.14
929;BME280;451;47.988;7.842;2022-12-29T07:28:02;98058.28;;;14.69;56.26
929;BME280;451;47.988;7.842;2022-12-29T07:37:04;97993.63;;;14.06;56.44
929;BME280;451;47.988;7.842;2022-12-29T07:46:06;98075.81;;;14.57;56.80
929;BME280;451;47.988;7.842;2022-12-29T07:55:10;97929.38;;;13.46;57.37
929;BME280;451;47.988;7.842;2022-12-29T08:04:12;98054.63;;;14.04;57.68
929;BME280;451;47.988;7.842;2022-12-29T08:13:14;98110.81;;;14.59;57.61
929;BME280;451;47.988;7.842;2022-12-29T08:22:16;98033.88;;;14.14;57.69
929;BME280;451;47.988;7.842;2022-12-29T08:31:17;98123.72;;;13.95;59.33
929;BME280;451;47.988;7.842;2022-12-29T08:40:19;98055.81;;;13.82;60.43
929;BME280;451;47.988;7.842;2022-12-29T08:49:21;98127.44;;;14.13;62.54
929;BME280;451;47.988;7.842;2022-12-29T08:58:22;98167.75;;;14.35;62.18
929;BME280;451;47.988;7.842;2022-12-29T09:07:25;98093.22;;;13.79;62.28
929;BME280;451;47.988;7.842;2022-12-29T09:16:27;98168.03;;;13.86;63.14
929;BME280;451;47.988;7.842;2022-12-29T09:25:29;98225.94;;;14.35;64.25
929;BME280;451;47.988;7.842;2022-12-29T09:34:31;98149.00;;;14.17;63.91
929;BME280;451;47.988;7.842;2022-12-29T09:44:12;98231.16;;;14.16;69.76
929;BME280;451;47.988;7.842;2022-12-29T09:53:24;98227.84;;;14.00;75.24
929;BME280;451;47.988;7.842;2022-12-29T10:12:16;98218.84;;;13.88;77.16
929;BME280;451;47.988;7.842;2022-12-29T10:30:50;98195.53;;;13.57;77.94
929;BME280;451;47.988;7.842;2022-12-29T10:39:55;98207.38;;;13.68;79.25
929;BME280;451;47.988;7.842;2022-12-29T10:48:56;98188.56;;;13.43;82.98
929;BME280;451;47.988;7.842;2022-12-29T10:58:02;98194.16;;;13.68;80.79
929;BME280;451;47.988;7.842;2022-12-29T11:07:06;97979.44;;;12.66;77.07
929;BME280;451;47.988;7.842;2022-12-29T11:16:11;98151.03;;;14.15;79.57
929;BME280;451;47.988;7.842;2022-12-29T11:25:13;97993.72;;;12.78;79.62
929;BME280;451;47.988;7.842;2022-12-29T11:34:19;98154.16;;;14.45;74.27
929;BME280;451;47.988;7.842;2022-12-29T11:43:31;98144.56;;;14.50;73.86
929;BME280;451;47.988;7.842;2022-12-29T11:52:36;98023.28;;;13.88;73.28
929;BME280;451;47.988;7.842;2022-12-29T12:01:42;98078.22;;;14.12;72.34
929;BME280;451;47.988;7.842;2022-12-29T12:10:50;97964.75;;;13.78;72.37
929;BME280;451;47.988;7.842;2022-12-29T12:19:57;98114.25;;;14.86;73.83
929;BME280;451;47.988;7.842;2022-12-29T12:29:24;98063.56;;;14.03;83.33
929;BME280;451;47.988;7.842;2022-12-29T13:06:26;98075.81;;;14.57;76.68
929;BME280;451;47.988;7.842;2022-12-29T13:43:39;98076.59;;;13.98;78.33
929;BME280;451;47.988;7.842;2022-12-29T14:02:19;98085.06;;;13.67;82.00
929;BME280;451;47.988;7.842;2022-12-29T14:11:30;98095.84;;;13.79;85.78
929;BME280;451;47.988;7.842;2022-12-29T14:20:33;98098.00;;;13.56;85.75
929;BME280;451;47.988;7.842;2022-12-29T14:38:44;98109.78;;;13.53;85.34
929;BME280;451;47.988;7.842;2022-12-29T14:47:49;98104.06;;;13.50;84.19
929;BME280;451;47.988;7.842;2022-12-29T14:56:51;98037.63;;;12.92;83.70
929;BME280;451;47.988;7.842;2022-12-29T15:06:06;98143.97;;;13.68;85.05
929;BME280;451;47.988;7.842;2022-12-29T15:24:23;98028.16;;;12.35;93.28
929;BME280;451;47.988;7.842;2022-12-29T15:33:27;98142.72;;;12.88;95.02
929;BME280;451;47.988;7.842;2022-12-29T15:42:46;98134.97;;;12.80;92.85
929;BME280;451;47.988;7.842;2022-12-29T15:51:51;97946.69;;;11.63;92.96
929;BME280;451;47.988;7.842;2022-12-29T16:00:56;98133.34;;;12.58;95.60
929;BME280;451;47.988;7.842;2022-12-29T16:10:01;98119.19;;;12.38;97.67
929;BME280;451;47.988;7.842;2022-12-29T16:19:11;98142.38;;;12.42;100.00
929;BME280;451;47.988;7.842;2022-12-29T16:28:20;98131.66;;;12.23;100.00
929;BME280;451;47.988;7.842;2022-12-29T16:37:31;98065.78;;;12.01;97.05
929;BME280;451;47.988;7.842;2022-12-29T16:46:33;98161.59;;;12.64;94.97
929;BME280;451;47.988;7.842;2022-12-29T16:55:35;98104.34;;;12.09;96.65
929;BME280;451;47.988;7.842;2022-12-29T17:04:37;98163.56;;;12.13;100.00
929;BME280;451;47.988;7.842;2022-12-29T17:13:39;98171.34;;;11.49;100.00
929;BME280;451;47.988;7.842;2022-12-29T17:22:41;98116.47;;;11.17;100.00
929;BME280;451;47.988;7.842;2022-12-29T17:31:43;98104.75;;;10.90;100.00
929;BME280;451;47.988;7.842;2022-12-29T17:40:45;98197.81;;;11.33;100.00
929;BME280;451;47.988;7.842;2022-12-29T17:49:47;98130.94;;;11.27;100.00
929;BME280;451;47.988;7.842;2022-12-29T17:58:48;98055.59;;;10.90;100.00
929;BME280;451;47.988;7.842;2022-12-29T18:07:52;98128.47;;;11.55;100.00
929;BME280;451;47.988;7.842;2022-12-29T18:16:55;98176.28;;;11.88;100.00
929;BME280;451;47.988;7.842;2022-12-29T18:35:29;98175.38;;;12.17;100.00
929;BME280;451;47.988;7.842;2022-12-29T18:44:33;98193.94;;;12.09;99.51
929;BME280;451;47.988;7.842;2022-12-29T18:53:37;98183.00;;;12.12;95.63
929;BME280;451;47.988;7.842;2022-12-29T19:02:39;98164.09;;;12.23;93.27
929;BME280;451;47.988;7.842;2022-12-29T19:11:41;98186.72;;;12.39;91.36
929;BME280;451;47.988;7.842;2022-12-29T19:20:43;98195.25;;;12.20;97.02
929;BME280;451;47.988;7.842;2022-12-29T19:29:46;98193.53;;;11.91;100.00
929;BME280;451;47.988;7.842;2022-12-29T19:38:48;98104.56;;;11.21;100.00
929;BME280;451;47.988;7.842;2022-12-29T19:47:51;98221.06;;;11.44;100.00
929;BME280;451;47.988;7.842;2022-12-29T19:56:53;98303.97;;;11.11;100.00
929;BME280;451;47.988;7.842;2022-12-29T20:05:55;98238.06;;;10.89;100.00
929;BME280;451;47.988;7.842;2022-12-29T20:14:57;98141.34;;;9.94;100.00
929;BME280;451;47.988;7.842;2022-12-29T20:23:59;98170.75;;;9.89;100.00
929;BME280;451;47.988;7.842;2022-12-29T20:33:01;98135.81;;;9.58;100.00
929;BME280;451;47.988;7.842;2022-12-29T20:42:03;98107.34;;;9.47;100.00
929;BME280;451;47.988;7.842;2022-12-29T20:51:04;98253.28;;;10.26;100.00
929;BME280;451;47.988;7.842;2022-12-29T21:00:10;98366.31;;;10.09;100.00
929;BME280;451;47.988;7.842;2022-12-29T21:09:12;98300.25;;;8.78;100.00
929;BME280;451;47.988;7.842;2022-12-29T21:18:14;98325.13;;;8.66;100.00
929;BME280;451;47.988;7.842;2022-12-29T21:27:15;98417.50;;;8.76;100.00
929;BME280;451;47.988;7.842;2022-12-29T21:36:17;98320.22;;;8.87;100.00
929;BME280;451;47.988;7.842;2022-12-29T21:45:19;98370.34;;;8.84;100.00
929;BME280;451;47.988;7.842;2022-12-29T21:54:27;98367.75;;;9.32;100.00
929;BME280;451;47.988;7.842;2022-12-29T22:03:48;98353.34;;;9.04;100.00
929;BME280;451;47.988;7.842;2022-12-29T22:13:08;98355.63;;;9.07;100.00
929;BME280;451;47.988;7.842;2022-12-29T22:22:10;98338.56;;;8.79;100.00
929;BME280;451;47.988;7.842;2022-12-29T22:31:28;98218.00;;;8.38;100.00
929;BME280;451;47.988;7.842;2022-12-29T22:40:30;98392.31;;;8.91;100.00
929;BME280;451;47.988;7.842;2022-12-29T22:49:32;98424.44;;;8.85;100.00
929;BME280;451;47.988;7.842;2022-12-29T22:58:34;98351.59;;;8.46;100.00
929;BME280;451;47.988;7.842;2022-12-29T23:07:36;98445.72;;;8.90;100.00
929;BME280;451;47.988;7.842;2022-12-29T23:16:37;98420.06;;;8.52;100.00
929;BME280;451;47.988;7.842;2022-12-29T23:25:39;98418.75;;;8.47;100.00
929;BME280;451;47.988;7.842;2022-12-29T23:34:41;98430.72;;;8.58;100.00
929;BME280;451;47.988;7.842;2022-12-29T23:43:43;98405.94;;;8.36;100.00
929;BME280;451;47.988;7.842;2022-12-29T23:52:44;98464.03;;;8.74;100.00
